sensor_id;sensor_type;location;lat;lon;timestamp;pressure;altitude;pressure_sealevel;temperature;humidity
58018;BME280;43810;50.860;19.226;2022-11-15T00:01:22;98978.69;;;2.53;88.62
58018;BME280;43810;50.860;19.226;2022-11-15T00:03:51;98974.38;;;2.28;88.46
58018;BME280;43810;50.860;19.226;2022-11-15T00:06:17;98971.75;;;2.28;88.68
58018;BME280;43810;50.860;19.226;2022-11-15T00:08:43;98970.22;;;2.17;88.35
58018;BME280;43810;50.860;19.226;2022-11-15T00:11:10;98968.13;;;2.14;88.50
58018;BME280;43810;50.860;19.226;2022-11-15T00:13:40;98959.22;;;2.10;88.79
58018;BME280;43810;50.860;19.226;2022-11-15T00:16:05;98959.75;;;2.07;88.60
58018;BME280;43810;50.860;19.226;2022-11-15T00:18:32;98967.84;;;2.15;88.46
58018;BME280;43810;50.860;19.226;2022-11-15T00:21:05;98960.25;;;2.14;88.29
58018;BME280;43810;50.860;19.226;2022-11-15T00:23:32;98970.22;;;2.12;88.27
58018;BME280;43810;50.860;19.226;2022-11-15T00:25:58;98967.94;;;1.95;88.48
58018;BME280;43810;50.860;19.226;2022-11-15T00:28:25;98957.72;;;1.94;88.95
58018;BME280;43810;50.860;19.226;2022-11-15T00:30:51;98961.34;;;1.98;89.05
58018;BME280;43810;50.860;19.226;2022-11-15T00:33:17;98948.28;;;1.93;88.91
58018;BME280;43810;50.860;19.226;2022-11-15T00:35:43;98952.16;;;2.00;88.51
58018;BME280;43810;50.860;19.226;2022-11-15T00:38:09;98957.19;;;1.87;88.50
58018;BME280;43810;50.860;19.226;2022-11-15T00:40:35;98949.88;;;1.84;88.88
58018;BME280;43810;50.860;19.226;2022-11-15T00:43:00;98944.38;;;1.75;88.92
58018;BME280;43810;50.860;19.226;2022-11-15T00:45:26;98936.28;;;1.71;89.18
58018;BME280;43810;50.860;19.226;2022-11-15T00:47:52;98942.59;;;1.70;89.40
58018;BME280;43810;50.860;19.226;2022-11-15T00:50:18;98931.84;;;1.62;89.40
58018;BME280;43810;50.860;19.226;2022-11-15T00:52:45;98928.44;;;1.56;89.58
58018;BME280;43810;50.860;19.226;2022-11-15T00:55:15;98924.78;;;1.57;89.43
58018;BME280;43810;50.860;19.226;2022-11-15T00:57:41;98918.75;;;1.57;89.51
58018;BME280;43810;50.860;19.226;2022-11-15T01:00:07;98918.75;;;1.52;89.51
58018;BME280;43810;50.860;19.226;2022-11-15T01:02:34;98915.13;;;1.42;89.39
58018;BME280;43810;50.860;19.226;2022-11-15T01:05:00;98900.47;;;1.36;89.50
58018;BME280;43810;50.860;19.226;2022-11-15T01:07:25;98903.06;;;1.36;89.72
58018;BME280;43810;50.860;19.226;2022-11-15T01:09:51;98907.03;;;1.24;89.75
58018;BME280;43810;50.860;19.226;2022-11-15T01:12:17;98913.31;;;1.28;89.66
58018;BME280;43810;50.860;19.226;2022-11-15T01:14:43;98909.63;;;1.29;89.81
58018;BME280;43810;50.860;19.226;2022-11-15T01:17:09;98893.41;;;1.22;90.02
58018;BME280;43810;50.860;19.226;2022-11-15T01:19:35;98885.00;;;1.20;90.07
58018;BME280;43810;50.860;19.226;2022-11-15T01:22:01;98891.81;;;1.16;89.93
58018;BME280;43810;50.860;19.226;2022-11-15T01:24:26;98886.59;;;1.05;90.19
58018;BME280;43810;50.860;19.226;2022-11-15T01:26:52;98883.50;;;1.03;90.30
58018;BME280;43810;50.860;19.226;2022-11-15T01:29:18;98886.13;;;1.03;90.34
58018;BME280;43810;50.860;19.226;2022-11-15T01:31:43;98875.88;;;0.97;90.26
58018;BME280;43810;50.860;19.226;2022-11-15T01:34:09;98867.22;;;1.06;89.99
58018;BME280;43810;50.860;19.226;2022-11-15T01:36:35;98871.44;;;1.02;89.95
58018;BME280;43810;50.860;19.226;2022-11-15T01:39:01;98871.97;;;0.99;89.94
58018;BME280;43810;50.860;19.226;2022-11-15T01:41:29;98859.66;;;0.90;89.84
58018;BME280;43810;50.860;19.226;2022-11-15T01:44:28;98866.97;;;0.93;89.93
58018;BME280;43810;50.860;19.226;2022-11-15T01:46:46;98865.94;;;0.84;90.17
58018;BME280;43810;50.860;19.226;2022-11-15T01:49:16;98868.31;;;0.85;89.77
58018;BME280;43810;50.860;19.226;2022-11-15T01:51:43;98860.19;;;0.71;89.86
58018;BME280;43810;50.860;19.226;2022-11-15T01:54:13;98862.81;;;0.71;89.94
58018;BME280;43810;50.860;19.226;2022-11-15T01:56:54;98857.59;;;0.66;90.06
58018;BME280;43810;50.860;19.226;2022-11-15T01:59:21;98859.94;;;0.63;90.13
58018;BME280;43810;50.860;19.226;2022-11-15T02:01:47;98836.88;;;0.60;90.08
58018;BME280;43810;50.860;19.226;2022-11-15T02:04:16;98837.41;;;0.62;89.88
58018;BME280;43810;50.860;19.226;2022-11-15T02:06:43;98837.16;;;0.53;90.15
58018;BME280;43810;50.860;19.226;2022-11-15T02:09:10;98830.63;;;0.51;90.46
58018;BME280;43810;50.860;19.226;2022-11-15T02:11:37;98833.25;;;0.56;90.10
58018;BME280;43810;50.860;19.226;2022-11-15T02:14:03;98824.06;;;0.53;90.00
58018;BME280;43810;50.860;19.226;2022-11-15T02:41:10;98781.47;;;1.17;90.67
58018;BME280;43810;50.860;19.226;2022-11-15T02:43:58;98772.00;;;1.31;90.84
58018;BME280;43810;50.860;19.226;2022-11-15T02:49:28;98770.94;;;1.81;91.43
58018;BME280;43810;50.860;19.226;2022-11-15T02:51:56;98765.56;;;2.02;91.28
58018;BME280;43810;50.860;19.226;2022-11-15T02:54:24;98767.56;;;2.15;91.10
58018;BME280;43810;50.860;19.226;2022-11-15T02:56:53;98761.06;;;2.36;91.34
58018;BME280;43810;50.860;19.226;2022-11-15T03:04:43;98751.91;;;2.86;90.73
58018;BME280;43810;50.860;19.226;2022-11-15T03:07:25;98757.25;;;3.00;90.29
58018;BME280;43810;50.860;19.226;2022-11-15T03:10:05;98753.53;;;3.06;90.45
58018;BME280;43810;50.860;19.226;2022-11-15T03:12:40;98745.13;;;3.04;90.63
58018;BME280;43810;50.860;19.226;2022-11-15T03:15:18;98755.31;;;3.11;90.15
58018;BME280;43810;50.860;19.226;2022-11-15T03:18:00;98754.53;;;3.10;89.86
58018;BME280;43810;50.860;19.226;2022-11-15T03:20:29;98755.59;;;3.09;89.58
58018;BME280;43810;50.860;19.226;2022-11-15T03:23:00;98745.69;;;3.01;89.71
58018;BME280;43810;50.860;19.226;2022-11-15T03:25:31;98752.88;;;2.96;89.63
58018;BME280;43810;50.860;19.226;2022-11-15T03:27:58;98745.41;;;2.79;89.05
58018;BME280;43810;50.860;19.226;2022-11-15T03:30:28;98738.16;;;2.71;89.21
58018;BME280;43810;50.860;19.226;2022-11-15T03:32:57;98738.16;;;2.71;89.16
58018;BME280;43810;50.860;19.226;2022-11-15T03:35:27;98735.78;;;2.69;89.17
58018;BME280;43810;50.860;19.226;2022-11-15T03:40:38;98735.13;;;2.59;88.66
58018;BME280;43810;50.860;19.226;2022-11-15T03:43:34;98719.44;;;2.53;88.51
58018;BME280;43810;50.860;19.226;2022-11-15T03:46:06;98722.69;;;2.40;88.63
58018;BME280;43810;50.860;19.226;2022-11-15T03:48:41;98721.13;;;2.39;89.02
58018;BME280;43810;50.860;19.226;2022-11-15T03:51:09;98719.09;;;2.31;89.15
58018;BME280;43810;50.860;19.226;2022-11-15T03:53:35;98724.06;;;2.33;88.72
58018;BME280;43810;50.860;19.226;2022-11-15T03:56:01;98709.72;;;2.25;88.72
58018;BME280;43810;50.860;19.226;2022-11-15T03:58:27;98713.75;;;2.12;88.64
58018;BME280;43810;50.860;19.226;2022-11-15T04:00:53;98726.38;;;2.10;89.21
58018;BME280;43810;50.860;19.226;2022-11-15T04:03:18;98719.53;;;2.14;89.38
58018;BME280;43810;50.860;19.226;2022-11-15T04:05:44;98716.91;;;2.14;89.38
58018;BME280;43810;50.860;19.226;2022-11-15T04:08:10;98718.72;;;2.14;89.33
58018;BME280;43810;50.860;19.226;2022-11-15T04:10:35;98711.41;;;2.11;89.26
58018;BME280;43810;50.860;19.226;2022-11-15T04:13:02;98718.69;;;2.19;89.42
58018;BME280;43810;50.860;19.226;2022-11-15T04:15:28;98711.81;;;2.23;89.70
58018;BME280;43810;50.860;19.226;2022-11-15T04:17:56;98710.13;;;2.37;89.49
58018;BME280;43810;50.860;19.226;2022-11-15T04:20:28;98713.78;;;2.41;89.48
58018;BME280;43810;50.860;19.226;2022-11-15T04:23:22;98710.63;;;2.39;89.22
58018;BME280;43810;50.860;19.226;2022-11-15T04:26:18;98711.13;;;2.41;89.05
58018;BME280;43810;50.860;19.226;2022-11-15T04:28:44;98707.06;;;2.30;88.94
58018;BME280;43810;50.860;19.226;2022-11-15T04:31:29;98706.91;;;2.16;88.91
58018;BME280;43810;50.860;19.226;2022-11-15T04:33:55;98704.31;;;2.11;88.82
58018;BME280;43810;50.860;19.226;2022-11-15T04:36:21;98705.44;;;2.05;89.00
58018;BME280;43810;50.860;19.226;2022-11-15T04:39:06;98706.31;;;1.96;89.11
58018;BME280;43810;50.860;19.226;2022-11-15T04:41:33;98710.28;;;1.88;88.94
58018;BME280;43810;50.860;19.226;2022-11-15T04:43:58;98709.75;;;1.86;89.14
58018;BME280;43810;50.860;19.226;2022-11-15T04:46:25;98708.19;;;1.85;88.65
58018;BME280;43810;50.860;19.226;2022-11-15T04:48:51;98700.19;;;1.71;88.75
58018;BME280;43810;50.860;19.226;2022-11-15T04:51:17;98697.81;;;1.70;88.61
58018;BME280;43810;50.860;19.226;2022-11-15T04:53:43;98699.69;;;1.64;88.72
58018;BME280;43810;50.860;19.226;2022-11-15T04:56:09;98703.38;;;1.63;88.84
58018;BME280;43810;50.860;19.226;2022-11-15T04:58:35;98706.56;;;1.60;88.94
58018;BME280;43810;50.860;19.226;2022-11-15T05:01:11;98698.97;;;1.54;89.00
58018;BME280;43810;50.860;19.226;2022-11-15T05:03:37;98696.41;;;1.49;88.87
58018;BME280;43810;50.860;19.226;2022-11-15T05:06:22;98705.38;;;1.37;89.16
58018;BME280;43810;50.860;19.226;2022-11-15T05:08:47;98698.59;;;1.31;88.95
58018;BME280;43810;50.860;19.226;2022-11-15T05:11:13;98700.22;;;1.22;89.25
58018;BME280;43810;50.860;19.226;2022-11-15T05:13:39;98701.53;;;1.20;88.98
58018;BME280;43810;50.860;19.226;2022-11-15T05:16:05;98684.56;;;1.12;89.12
58018;BME280;43810;50.860;19.226;2022-11-15T05:18:30;98683.75;;;1.12;88.50
58018;BME280;43810;50.860;19.226;2022-11-15T05:21:03;98681.41;;;1.05;88.66
58018;BME280;43810;50.860;19.226;2022-11-15T05:23:29;98679.63;;;0.95;89.11
58018;BME280;43810;50.860;19.226;2022-11-15T05:25:59;98677.03;;;0.95;88.99
58018;BME280;43810;50.860;19.226;2022-11-15T05:28:25;98678.63;;;0.91;89.07
58018;BME280;43810;50.860;19.226;2022-11-15T05:30:51;98674.97;;;0.87;88.99
58018;BME280;43810;50.860;19.226;2022-11-15T05:33:17;98675.22;;;0.86;88.66
58018;BME280;43810;50.860;19.226;2022-11-15T05:35:46;98681.56;;;0.75;88.58
58018;BME280;43810;50.860;19.226;2022-11-15T05:38:14;98686.06;;;0.64;89.10
58018;BME280;43810;50.860;19.226;2022-11-15T05:40:40;98685.56;;;0.57;88.94
58018;BME280;43810;50.860;19.226;2022-11-15T05:43:06;98687.41;;;0.56;89.16
58018;BME280;43810;50.860;19.226;2022-11-15T05:45:33;98688.72;;;0.49;88.97
58018;BME280;43810;50.860;19.226;2022-11-15T05:48:01;98686.91;;;0.39;88.60
58018;BME280;43810;50.860;19.226;2022-11-15T05:50:30;98691.91;;;0.30;89.24
58018;BME280;43810;50.860;19.226;2022-11-15T05:52:56;98686.91;;;0.24;88.85
58018;BME280;43810;50.860;19.226;2022-11-15T05:55:22;98686.44;;;0.22;89.04
58018;BME280;43810;50.860;19.226;2022-11-15T05:57:48;98691.13;;;0.20;89.22
58018;BME280;43810;50.860;19.226;2022-11-15T06:00:14;98691.91;;;0.15;89.20
58018;BME280;43810;50.860;19.226;2022-11-15T06:02:40;98686.41;;;0.12;89.23
58018;BME280;43810;50.860;19.226;2022-11-15T06:05:06;98687.75;;;0.09;89.06
58018;BME280;43810;50.860;19.226;2022-11-15T06:07:31;98684.34;;;0.04;89.29
58018;BME280;43810;50.860;19.226;2022-11-15T06:09:57;98686.72;;;0.00;89.22
58018;BME280;43810;50.860;19.226;2022-11-15T06:12:23;98687.47;;;0.00;89.19
58018;BME280;43810;50.860;19.226;2022-11-15T06:14:49;98681.19;;;0.02;89.15
58018;BME280;43810;50.860;19.226;2022-11-15T06:17:14;98687.75;;;0.04;89.38
58018;BME280;43810;50.860;19.226;2022-11-15T06:19:40;98684.34;;;0.04;88.76
58018;BME280;43810;50.860;19.226;2022-11-15T06:22:06;98677.53;;;-0.08;89.27
58018;BME280;43810;50.860;19.226;2022-11-15T06:24:32;98673.09;;;-0.02;89.31
58018;BME280;43810;50.860;19.226;2022-11-15T06:26:57;98686.72;;;0.00;89.40
58018;BME280;43810;50.860;19.226;2022-11-15T06:29:27;98689.34;;;0.00;89.97
58018;BME280;43810;50.860;19.226;2022-11-15T06:31:56;98686.19;;;0.08;89.70
58018;BME280;43810;50.860;19.226;2022-11-15T06:34:21;98692.97;;;0.09;90.06
58018;BME280;43810;50.860;19.226;2022-11-15T06:36:47;98681.97;;;0.12;89.92
58018;BME280;43810;50.860;19.226;2022-11-15T06:39:13;98700.28;;;0.12;90.23
58018;BME280;43810;50.860;19.226;2022-11-15T06:41:39;98690.88;;;0.16;90.25
58018;BME280;43810;50.860;19.226;2022-11-15T06:44:07;98706.56;;;0.26;90.18
58018;BME280;43810;50.860;19.226;2022-11-15T06:46:33;98697.38;;;0.24;90.29
58018;BME280;43810;50.860;19.226;2022-11-15T06:48:59;98696.59;;;0.28;90.01
58018;BME280;43810;50.860;19.226;2022-11-15T06:51:24;98683.50;;;0.44;90.09
58018;BME280;43810;50.860;19.226;2022-11-15T06:53:50;98692.41;;;0.43;89.94
58018;BME280;43810;50.860;19.226;2022-11-15T06:56:16;98690.53;;;0.53;90.05
58018;BME280;43810;50.860;19.226;2022-11-15T06:58:42;98691.03;;;0.60;90.04
58018;BME280;43810;50.860;19.226;2022-11-15T07:01:20;98686.31;;;0.67;89.77
58018;BME280;43810;50.860;19.226;2022-11-15T07:03:51;98688.63;;;0.79;89.66
58018;BME280;43810;50.860;19.226;2022-11-15T07:06:17;98685.97;;;0.84;89.72
58018;BME280;43810;50.860;19.226;2022-11-15T07:08:43;98685.44;;;0.87;89.87
58018;BME280;43810;50.860;19.226;2022-11-15T07:11:09;98684.59;;;1.02;90.02
58018;BME280;43810;50.860;19.226;2022-11-15T07:13:35;98683.50;;;1.13;90.01
58018;BME280;43810;50.860;19.226;2022-11-15T07:16:07;98676.16;;;1.15;90.03
58018;BME280;43810;50.860;19.226;2022-11-15T07:18:35;98685.22;;;1.28;90.37
58018;BME280;43810;50.860;19.226;2022-11-15T07:21:03;98679.66;;;1.39;90.58
58018;BME280;43810;50.860;19.226;2022-11-15T07:23:29;98684.78;;;1.60;90.50
58018;BME280;43810;50.860;19.226;2022-11-15T07:25:57;98695.41;;;1.78;90.45
58018;BME280;43810;50.860;19.226;2022-11-15T07:28:25;98676.84;;;1.99;90.52
58018;BME280;43810;50.860;19.226;2022-11-15T07:30:50;98679.53;;;2.23;90.45
58018;BME280;43810;50.860;19.226;2022-11-15T07:33:16;98674.13;;;2.38;90.28
58018;BME280;43810;50.860;19.226;2022-11-15T07:35:42;98670.28;;;2.54;90.48
58018;BME280;43810;50.860;19.226;2022-11-15T07:38:08;98661.78;;;2.86;90.33
58018;BME280;43810;50.860;19.226;2022-11-15T07:40:34;98667.56;;;3.07;89.91
58018;BME280;43810;50.860;19.226;2022-11-15T07:43:05;98661.22;;;3.26;90.04
58018;BME280;43810;50.860;19.226;2022-11-15T07:45:31;98664.16;;;3.44;89.75
58018;BME280;43810;50.860;19.226;2022-11-15T07:47:59;98661.34;;;3.73;89.76
58018;BME280;43810;50.860;19.226;2022-11-15T07:50:25;98661.31;;;3.91;89.39
58018;BME280;43810;50.860;19.226;2022-11-15T07:52:56;98663.31;;;4.13;89.12
58018;BME280;43810;50.860;19.226;2022-11-15T07:55:23;98663.22;;;4.32;88.74
58018;BME280;43810;50.860;19.226;2022-11-15T07:57:50;98657.69;;;4.61;88.51
58018;BME280;43810;50.860;19.226;2022-11-15T08:00:17;98654.53;;;4.86;88.00
58018;BME280;43810;50.860;19.226;2022-11-15T08:02:43;98648.88;;;5.06;87.46
58018;BME280;43810;50.860;19.226;2022-11-15T08:05:09;98655.25;;;5.28;86.60
58018;BME280;43810;50.860;19.226;2022-11-15T08:07:35;98654.06;;;5.56;86.56
58018;BME280;43810;50.860;19.226;2022-11-15T08:10:04;98656.13;;;5.81;85.96
58018;BME280;43810;50.860;19.226;2022-11-15T08:12:31;98645.69;;;5.99;85.56
58018;BME280;43810;50.860;19.226;2022-11-15T08:14:57;98635.66;;;6.09;83.93
58018;BME280;43810;50.860;19.226;2022-11-15T08:17:24;98633.22;;;6.22;83.71
58018;BME280;43810;50.860;19.226;2022-11-15T08:19:49;98634.56;;;6.50;83.97
58018;BME280;43810;50.860;19.226;2022-11-15T08:22:16;98635.84;;;6.61;82.95
58018;BME280;43810;50.860;19.226;2022-11-15T08:24:41;98630.63;;;6.78;82.03
58018;BME280;43810;50.860;19.226;2022-11-15T08:27:08;98627.69;;;6.97;81.75
58018;BME280;43810;50.860;19.226;2022-11-15T08:29:48;98625.22;;;7.18;80.62
58018;BME280;43810;50.860;19.226;2022-11-15T08:32:14;98622.91;;;7.25;80.18
58018;BME280;43810;50.860;19.226;2022-11-15T08:34:40;98620.41;;;7.46;79.04
58018;BME280;43810;50.860;19.226;2022-11-15T08:37:06;98620.69;;;7.61;78.62
58018;BME280;43810;50.860;19.226;2022-11-15T08:39:32;98629.84;;;7.81;78.04
58018;BME280;43810;50.860;19.226;2022-11-15T08:41:58;98621.09;;;7.89;78.02
58018;BME280;43810;50.860;19.226;2022-11-15T08:44:23;98623.84;;;8.10;77.39
58018;BME280;43810;50.860;19.226;2022-11-15T08:46:49;98625.50;;;8.32;76.22
58018;BME280;43810;50.860;19.226;2022-11-15T08:49:16;98621.78;;;8.33;76.12
58018;BME280;43810;50.860;19.226;2022-11-15T08:51:42;98626.09;;;8.46;75.77
58018;BME280;43810;50.860;19.226;2022-11-15T08:54:07;98629.97;;;8.49;75.08
58018;BME280;43810;50.860;19.226;2022-11-15T08:56:33;98631.19;;;8.60;74.58
58018;BME280;43810;50.860;19.226;2022-11-15T08:58:59;98632.53;;;8.66;74.30
58018;BME280;43810;50.860;19.226;2022-11-15T09:01:25;98624.25;;;8.76;74.68
58018;BME280;43810;50.860;19.226;2022-11-15T09:03:51;98621.91;;;8.95;74.47
58018;BME280;43810;50.860;19.226;2022-11-15T09:06:16;98616.63;;;8.95;73.25
58018;BME280;43810;50.860;19.226;2022-11-15T09:08:42;98615.69;;;8.91;72.75
58018;BME280;43810;50.860;19.226;2022-11-15T09:11:09;98614.88;;;8.99;72.04
58018;BME280;43810;50.860;19.226;2022-11-15T09:13:36;98626.00;;;9.14;72.62
58018;BME280;43810;50.860;19.226;2022-11-15T09:16:05;98615.91;;;9.28;73.14
58018;BME280;43810;50.860;19.226;2022-11-15T09:18:31;98609.47;;;9.50;71.98
58018;BME280;43810;50.860;19.226;2022-11-15T09:20:58;98611.72;;;9.60;71.50
58018;BME280;43810;50.860;19.226;2022-11-15T09:23:24;98618.50;;;9.69;72.21
58018;BME280;43810;50.860;19.226;2022-11-15T09:25:51;98606.34;;;9.68;72.44
58018;BME280;43810;50.860;19.226;2022-11-15T09:28:17;98617.22;;;9.75;72.32
58018;BME280;43810;50.860;19.226;2022-11-15T09:30:43;98608.38;;;9.96;70.70
58018;BME280;43810;50.860;19.226;2022-11-15T09:33:12;98609.06;;;10.05;69.93
58018;BME280;43810;50.860;19.226;2022-11-15T09:35:38;98596.72;;;10.33;70.50
58018;BME280;43810;50.860;19.226;2022-11-15T09:38:06;98590.97;;;10.43;69.46
58018;BME280;43810;50.860;19.226;2022-11-15T09:40:32;98597.63;;;10.49;69.30
58018;BME280;43810;50.860;19.226;2022-11-15T09:45:34;98590.97;;;10.68;69.70
58018;BME280;43810;50.860;19.226;2022-11-15T09:50:43;98578.41;;;10.93;68.50
58018;BME280;43810;50.860;19.226;2022-11-15T09:53:14;98574.59;;;11.06;67.70
58018;BME280;43810;50.860;19.226;2022-11-15T09:55:54;98568.69;;;11.12;67.21
58018;BME280;43810;50.860;19.226;2022-11-15T09:58:36;98563.19;;;11.21;67.27
58018;BME280;43810;50.860;19.226;2022-11-15T10:01:08;98565.03;;;11.33;67.40
58018;BME280;43810;50.860;19.226;2022-11-15T10:03:40;98560.72;;;11.40;67.27
58018;BME280;43810;50.860;19.226;2022-11-15T10:06:22;98555.22;;;11.49;67.23
58018;BME280;43810;50.860;19.226;2022-11-15T10:11:29;98544.81;;;11.87;66.76
58018;BME280;43810;50.860;19.226;2022-11-15T10:14:10;98533.97;;;11.96;65.72
58018;BME280;43810;50.860;19.226;2022-11-15T10:19:38;98538.88;;;12.10;66.53
58018;BME280;43810;50.860;19.226;2022-11-15T10:22:26;98522.59;;;12.15;65.62
58018;BME280;43810;50.860;19.226;2022-11-15T10:25:23;98517.25;;;12.30;65.29
58018;BME280;43810;50.860;19.226;2022-11-15T10:28:28;98515.16;;;12.40;64.46
58018;BME280;43810;50.860;19.226;2022-11-15T10:30:59;98509.38;;;12.53;64.08
58018;BME280;43810;50.860;19.226;2022-11-15T10:46:40;98490.72;;;12.92;62.89
58018;BME280;43810;50.860;19.226;2022-11-15T10:49:27;98489.81;;;13.03;63.50
58018;BME280;43810;50.860;19.226;2022-11-15T10:52:15;98478.63;;;13.17;62.40
58018;BME280;43810;50.860;19.226;2022-11-15T10:54:59;98486.25;;;13.15;62.29
58018;BME280;43810;50.860;19.226;2022-11-15T10:57:50;98482.91;;;13.02;64.08
58018;BME280;43810;50.860;19.226;2022-11-15T11:05:29;98474.97;;;13.25;61.41
58018;BME280;43810;50.860;19.226;2022-11-15T11:08:23;98478.97;;;13.35;63.15
58018;BME280;43810;50.860;19.226;2022-11-15T11:10:57;98474.78;;;13.15;62.01
58018;BME280;43810;50.860;19.226;2022-11-15T11:13:35;98480.19;;;12.99;63.17
58018;BME280;43810;50.860;19.226;2022-11-15T11:50:52;98443.41;;;12.73;64.86
58018;BME280;43810;50.860;19.226;2022-11-15T11:53:29;98436.13;;;12.89;63.99
58018;BME280;43810;50.860;19.226;2022-11-15T11:56:04;98431.25;;;12.95;63.20
58018;BME280;43810;50.860;19.226;2022-11-15T11:58:36;98421.50;;;13.02;63.56
58018;BME280;43810;50.860;19.226;2022-11-15T12:01:45;98421.16;;;13.27;63.03
58018;BME280;43810;50.860;19.226;2022-11-15T12:03:58;98424.03;;;13.37;62.59
58018;BME280;43810;50.860;19.226;2022-11-15T12:06:55;98419.81;;;13.36;62.75
58018;BME280;43810;50.860;19.226;2022-11-15T12:09:35;98409.31;;;13.47;62.18
58018;BME280;43810;50.860;19.226;2022-11-15T12:12:23;98413.97;;;13.54;61.57
58018;BME280;43810;50.860;19.226;2022-11-15T12:14:57;98401.44;;;13.58;61.50
58018;BME280;43810;50.860;19.226;2022-11-15T12:17:28;98398.94;;;13.68;61.36
58018;BME280;43810;50.860;19.226;2022-11-15T12:19:58;98414.09;;;13.84;61.34
58018;BME280;43810;50.860;19.226;2022-11-15T12:22:39;98402.06;;;14.00;60.98
58018;BME280;43810;50.860;19.226;2022-11-15T12:25:14;98401.88;;;14.12;60.21
58018;BME280;43810;50.860;19.226;2022-11-15T12:30:38;98398.56;;;14.23;60.16
58018;BME280;43810;50.860;19.226;2022-11-15T12:33:41;98401.09;;;14.12;59.71
58018;BME280;43810;50.860;19.226;2022-11-15T12:36:11;98396.16;;;14.40;58.97
58018;BME280;43810;50.860;19.226;2022-11-15T12:38:57;98393.59;;;14.51;58.49
58018;BME280;43810;50.860;19.226;2022-11-15T12:41:28;98386.41;;;14.59;59.11
58018;BME280;43810;50.860;19.226;2022-11-15T12:43:54;98392.25;;;14.68;58.13
58018;BME280;43810;50.860;19.226;2022-11-15T12:46:26;98384.31;;;14.78;58.24
58018;BME280;43810;50.860;19.226;2022-11-15T12:59:52;98371.09;;;13.73;60.92
58018;BME280;43810;50.860;19.226;2022-11-15T13:04:50;98369.06;;;13.63;61.78
58018;BME280;43810;50.860;19.226;2022-11-15T13:20:45;98359.13;;;12.95;64.25
58018;BME280;43810;50.860;19.226;2022-11-15T13:23:15;98354.44;;;12.88;63.83
58018;BME280;43810;50.860;19.226;2022-11-15T13:26:21;98351.53;;;12.74;64.62
58018;BME280;43810;50.860;19.226;2022-11-15T13:28:50;98355.13;;;12.62;65.17
58018;BME280;43810;50.860;19.226;2022-11-15T13:33:43;98349.69;;;12.59;65.16
58018;BME280;43810;50.860;19.226;2022-11-15T13:36:16;98348.53;;;12.56;65.33
58018;BME280;43810;50.860;19.226;2022-11-15T13:38:44;98344.50;;;12.47;65.43
58018;BME280;43810;50.860;19.226;2022-11-15T13:41:18;98342.84;;;12.39;65.39
58018;BME280;43810;50.860;19.226;2022-11-15T13:43:46;98338.84;;;12.29;65.88
58018;BME280;43810;50.860;19.226;2022-11-15T13:48:40;98339.84;;;12.21;66.57
58018;BME280;43810;50.860;19.226;2022-11-15T13:51:46;98352.66;;;11.96;67.02
58018;BME280;43810;50.860;19.226;2022-11-15T13:56:53;98339.63;;;11.44;68.85
58018;BME280;43810;50.860;19.226;2022-11-15T13:59:32;98339.53;;;11.56;68.99
58018;BME280;43810;50.860;19.226;2022-11-15T14:02:18;98330.00;;;11.55;68.69
58018;BME280;43810;50.860;19.226;2022-11-15T14:04:52;98322.00;;;11.55;68.69
58018;BME280;43810;50.860;19.226;2022-11-15T14:07:20;98336.28;;;11.47;68.67
58018;BME280;43810;50.860;19.226;2022-11-15T14:09:47;98327.72;;;11.38;69.03
58018;BME280;43810;50.860;19.226;2022-11-15T14:12:26;98323.34;;;11.30;69.39
58018;BME280;43810;50.860;19.226;2022-11-15T14:14:53;98326.94;;;11.21;69.59
58018;BME280;43810;50.860;19.226;2022-11-15T14:19:57;98321.38;;;10.95;70.70
58018;BME280;43810;50.860;19.226;2022-11-15T14:22:25;98314.41;;;10.91;71.19
58018;BME280;43810;50.860;19.226;2022-11-15T14:27:32;98305.03;;;10.81;71.04
58018;BME280;43810;50.860;19.226;2022-11-15T14:29:58;98302.69;;;10.64;71.60
58018;BME280;43810;50.860;19.226;2022-11-15T14:32:29;98300.34;;;10.46;72.17
58018;BME280;43810;50.860;19.226;2022-11-15T14:34:59;98296.28;;;10.37;72.27
58018;BME280;43810;50.860;19.226;2022-11-15T14:37:28;98292.31;;;10.31;72.78
58018;BME280;43810;50.860;19.226;2022-11-15T14:39:57;98290.94;;;10.09;73.22
58018;BME280;43810;50.860;19.226;2022-11-15T14:42:23;98287.09;;;9.94;73.47
58018;BME280;43810;50.860;19.226;2022-11-15T14:44:49;98282.22;;;9.68;74.46
58018;BME280;43810;50.860;19.226;2022-11-15T14:47:15;98287.88;;;9.42;75.46
58018;BME280;43810;50.860;19.226;2022-11-15T14:49:41;98282.91;;;9.17;76.50
58018;BME280;43810;50.860;19.226;2022-11-15T14:52:28;98289.19;;;9.00;77.18
58018;BME280;43810;50.860;19.226;2022-11-15T14:54:55;98279.91;;;8.94;77.48
58018;BME280;43810;50.860;19.226;2022-11-15T14:57:21;98275.81;;;8.84;77.68
58018;BME280;43810;50.860;19.226;2022-11-15T14:59:48;98279.00;;;8.78;78.22
58018;BME280;43810;50.860;19.226;2022-11-15T15:04:46;98267.59;;;8.53;79.04
58018;BME280;43810;50.860;19.226;2022-11-15T15:07:12;98264.22;;;8.44;79.39
58018;BME280;43810;50.860;19.226;2022-11-15T15:09:37;98266.53;;;8.33;79.84
58018;BME280;43810;50.860;19.226;2022-11-15T15:12:04;98265.63;;;8.29;80.24
58018;BME280;43810;50.860;19.226;2022-11-15T15:14:32;98255.53;;;8.22;80.51
58018;BME280;43810;50.860;19.226;2022-11-15T15:16:58;98250.03;;;8.27;80.26
58018;BME280;43810;50.860;19.226;2022-11-15T15:19:24;98249.56;;;8.25;80.54
58018;BME280;43810;50.860;19.226;2022-11-15T15:21:49;98248.22;;;8.19;80.57
58018;BME280;43810;50.860;19.226;2022-11-15T15:24:15;98243.47;;;8.13;80.98
58018;BME280;43810;50.860;19.226;2022-11-15T15:26:41;98249.41;;;8.10;81.04
58018;BME280;43810;50.860;19.226;2022-11-15T15:29:09;98238.69;;;8.06;81.02
58018;BME280;43810;50.860;19.226;2022-11-15T15:31:35;98237.66;;;7.98;81.14
58018;BME280;43810;50.860;19.226;2022-11-15T15:34:01;98237.56;;;7.95;80.79
58018;BME280;43810;50.860;19.226;2022-11-15T15:36:26;98238.38;;;7.87;80.75